sensor_id;sensor_type;location;lat;lon;timestamp;pressure;altitude;pressure_sealevel;temperature;humidity
71149;BME280;59072;42.144;25.200;2023-11-19T00:00:03;99703.56;;;6.66;67.18
71149;BME280;59072;42.144;25.200;2023-11-19T00:02:29;99692.81;;;6.80;66.45
71149;BME280;59072;42.144;25.200;2023-11-19T00:04:55;99701.56;;;6.74;65.68
71149;BME280;59072;42.144;25.200;2023-11-19T00:07:20;99696.25;;;6.68;66.00
71149;BME280;59072;42.144;25.200;2023-11-19T00:09:45;99703.56;;;6.59;66.82
71149;BME280;59072;42.144;25.200;2023-11-19T00:12:11;99725.63;;;6.73;66.65
71149;BME280;59072;42.144;25.200;2023-11-19T00:14:36;99734.97;;;6.75;66.53
71149;BME280;59072;42.144;25.200;2023-11-19T00:17:02;99750.47;;;6.72;66.85
71149;BME280;59072;42.144;25.200;2023-11-19T00:19:29;99734.19;;;6.75;66.51
71149;BME280;59072;42.144;25.200;2023-11-19T00:21:54;99740.66;;;6.59;67.37
71149;BME280;59072;42.144;25.200;2023-11-19T00:24:20;99730.88;;;6.59;67.74
71149;BME280;59072;42.144;25.200;2023-11-19T00:26:45;99706.78;;;6.48;67.78
71149;BME280;59072;42.144;25.200;2023-11-19T00:29:11;99747.81;;;6.72;67.69
71149;BME280;59072;42.144;25.200;2023-11-19T00:31:38;99733.31;;;6.54;67.87
71149;BME280;59072;42.144;25.200;2023-11-19T00:34:04;99722.31;;;6.57;67.88
71149;BME280;59072;42.144;25.200;2023-11-19T00:36:31;99772.31;;;6.80;67.15
71149;BME280;59072;42.144;25.200;2023-11-19T00:38:57;99748.03;;;6.70;66.92
71149;BME280;59072;42.144;25.200;2023-11-19T00:41:22;99748.47;;;6.80;66.81
71149;BME280;59072;42.144;25.200;2023-11-19T00:43:47;99760.47;;;6.83;67.45
71149;BME280;59072;42.144;25.200;2023-11-19T00:46:14;99737.06;;;6.87;66.50
71149;BME280;59072;42.144;25.200;2023-11-19T00:48:40;99739.66;;;6.73;65.88
71149;BME280;59072;42.144;25.200;2023-11-19T00:51:05;99748.03;;;6.83;65.93
71149;BME280;59072;42.144;25.200;2023-11-19T00:53:31;99744.78;;;6.88;65.24
71149;BME280;59072;42.144;25.200;2023-11-19T00:55:57;99750.50;;;6.92;65.26
71149;BME280;59072;42.144;25.200;2023-11-19T00:58:23;99734.19;;;6.81;65.37
71149;BME280;59072;42.144;25.200;2023-11-19T01:00:49;99718.09;;;6.76;64.46
71149;BME280;59072;42.144;25.200;2023-11-19T01:03:14;99730.09;;;6.79;64.61
71149;BME280;59072;42.144;25.200;2023-11-19T01:05:41;99763.38;;;6.95;64.67
71149;BME280;59072;42.144;25.200;2023-11-19T01:08:06;99748.44;;;6.74;65.23
71149;BME280;59072;42.144;25.200;2023-11-19T01:10:32;99759.06;;;6.80;65.08
71149;BME280;59072;42.144;25.200;2023-11-19T01:12:58;99754.16;;;6.64;66.01
71149;BME280;59072;42.144;25.200;2023-11-19T01:15:23;99752.91;;;6.67;66.56
71149;BME280;59072;42.144;25.200;2023-11-19T01:17:49;99764.34;;;6.74;66.06
71149;BME280;59072;42.144;25.200;2023-11-19T01:20:14;99748.03;;;6.77;66.12
71149;BME280;59072;42.144;25.200;2023-11-19T01:22:40;99732.91;;;6.51;66.62
71149;BME280;59072;42.144;25.200;2023-11-19T01:25:06;99765.56;;;6.71;66.55
71149;BME280;59072;42.144;25.200;2023-11-19T01:27:32;99769.63;;;6.74;66.18
71149;BME280;59072;42.144;25.200;2023-11-19T01:30:00;99764.38;;;6.80;65.65
71149;BME280;59072;42.144;25.200;2023-11-19T01:32:28;99766.16;;;6.60;67.29
71149;BME280;59072;42.144;25.200;2023-11-19T01:34:54;99743.91;;;6.54;66.14
71149;BME280;59072;42.144;25.200;2023-11-19T01:37:19;99770.84;;;6.71;66.45
71149;BME280;59072;42.144;25.200;2023-11-19T01:39:45;99755.38;;;6.68;66.34
71149;BME280;59072;42.144;25.200;2023-11-19T01:42:10;99750.84;;;6.55;66.42
71149;BME280;59072;42.144;25.200;2023-11-19T01:44:37;99766.78;;;6.69;66.06
71149;BME280;59072;42.144;25.200;2023-11-19T01:47:03;99736.97;;;6.47;65.83
71149;BME280;59072;42.144;25.200;2023-11-19T01:49:30;99774.91;;;6.67;67.45
71149;BME280;59072;42.144;25.200;2023-11-19T01:51:57;99756.56;;;6.59;67.15
71149;BME280;59072;42.144;25.200;2023-11-19T01:54:23;99737.78;;;6.54;66.58
71149;BME280;59072;42.144;25.200;2023-11-19T01:56:48;99770.91;;;6.84;66.46
71149;BME280;59072;42.144;25.200;2023-11-19T01:59:14;99723.91;;;6.38;67.48
71149;BME280;59072;42.144;25.200;2023-11-19T02:01:41;99763.09;;;6.70;67.95
71149;BME280;59072;42.144;25.200;2023-11-19T02:04:07;99730.91;;;6.66;67.46
71149;BME280;59072;42.144;25.200;2023-11-19T02:06:34;99714.53;;;6.42;67.18
71149;BME280;59072;42.144;25.200;2023-11-19T02:09:01;99751.31;;;6.72;67.28
71149;BME280;59072;42.144;25.200;2023-11-19T02:11:33;99726.81;;;6.63;67.37
71149;BME280;59072;42.144;25.200;2023-11-19T02:13:59;99702.34;;;6.48;67.33
71149;BME280;59072;42.144;25.200;2023-11-19T02:16:25;99715.59;;;6.55;67.03
71149;BME280;59072;42.144;25.200;2023-11-19T02:18:50;99721.88;;;6.47;68.08
71149;BME280;59072;42.144;25.200;2023-11-19T02:21:15;99702.91;;;6.37;67.52
71149;BME280;59072;42.144;25.200;2023-11-19T02:23:42;99714.94;;;6.39;67.33
71149;BME280;59072;42.144;25.200;2023-11-19T02:28:48;99733.28;;;6.48;68.00
71149;BME280;59072;42.144;25.200;2023-11-19T02:31:13;99727.38;;;6.46;66.83
71149;BME280;59072;42.144;25.200;2023-11-19T02:33:39;99722.69;;;6.41;67.93
71149;BME280;59072;42.144;25.200;2023-11-19T02:36:06;99723.91;;;6.38;67.43
71149;BME280;59072;42.144;25.200;2023-11-19T02:38:33;99720.22;;;6.39;66.74
71149;BME280;59072;42.144;25.200;2023-11-19T02:40:58;99741.03;;;6.49;67.06
71149;BME280;59072;42.144;25.200;2023-11-19T02:43:24;99757.53;;;6.44;66.84
71149;BME280;59072;42.144;25.200;2023-11-19T02:45:49;99744.28;;;6.44;67.02
71149;BME280;59072;42.144;25.200;2023-11-19T02:48:15;99725.09;;;6.29;68.12
71149;BME280;59072;42.144;25.200;2023-11-19T02:50:44;99720.63;;;6.36;67.18
71149;BME280;59072;42.144;25.200;2023-11-19T02:53:09;99742.03;;;6.41;68.46
71149;BME280;59072;42.144;25.200;2023-11-19T02:55:35;99715.09;;;6.24;67.88
71149;BME280;59072;42.144;25.200;2023-11-19T02:58:04;99735.13;;;6.40;67.03
71149;BME280;59072;42.144;25.200;2023-11-19T03:00:45;99723.72;;;6.47;66.32
71149;BME280;59072;42.144;25.200;2023-11-19T03:03:25;99727.16;;;6.40;66.60
71149;BME280;59072;42.144;25.200;2023-11-19T03:05:56;99734.09;;;6.41;65.15
71149;BME280;59072;42.144;25.200;2023-11-19T03:08:22;99715.34;;;6.43;64.64
71149;BME280;59072;42.144;25.200;2023-11-19T03:10:48;99735.94;;;6.48;63.94
71149;BME280;59072;42.144;25.200;2023-11-19T03:13:14;99767.16;;;6.66;63.47
71149;BME280;59072;42.144;25.200;2023-11-19T03:15:40;99769.84;;;6.72;63.44
71149;BME280;59072;42.144;25.200;2023-11-19T03:18:06;99764.34;;;6.74;62.87
71149;BME280;59072;42.144;25.200;2023-11-19T03:20:32;99722.69;;;6.48;63.02
71149;BME280;59072;42.144;25.200;2023-11-19T03:22:57;99747.19;;;6.63;63.47
71149;BME280;59072;42.144;25.200;2023-11-19T03:25:26;99734.38;;;6.60;62.72
71149;BME280;59072;42.144;25.200;2023-11-19T03:28:02;99725.13;;;6.42;63.45
71149;BME280;59072;42.144;25.200;2023-11-19T03:30:28;99757.75;;;6.50;65.29
71149;BME280;59072;42.144;25.200;2023-11-19T03:32:54;99748.97;;;6.42;67.19
71149;BME280;59072;42.144;25.200;2023-11-19T03:35:20;99720.28;;;5.98;69.45
71149;BME280;59072;42.144;25.200;2023-11-19T03:37:45;99771.38;;;6.40;69.09
71149;BME280;59072;42.144;25.200;2023-11-19T03:40:11;99780.81;;;6.08;70.16
71149;BME280;59072;42.144;25.200;2023-11-19T03:42:37;99777.19;;;6.15;70.41
71149;BME280;59072;42.144;25.200;2023-11-19T03:45:05;99753.28;;;5.95;70.34
71149;BME280;59072;42.144;25.200;2023-11-19T03:47:33;99785.16;;;6.22;70.06
71149;BME280;59072;42.144;25.200;2023-11-19T03:49:59;99766.19;;;6.18;70.00
71149;BME280;59072;42.144;25.200;2023-11-19T03:52:24;99774.72;;;6.07;70.38
71149;BME280;59072;42.144;25.200;2023-11-19T03:54:52;99780.72;;;5.94;70.65
71149;BME280;59072;42.144;25.200;2023-11-19T03:57:18;99783.22;;;6.02;71.17
71149;BME280;59072;42.144;25.200;2023-11-19T03:59:44;99795.53;;;6.17;70.55
71149;BME280;59072;42.144;25.200;2023-11-19T04:02:09;99785.03;;;5.95;70.63
71149;BME280;59072;42.144;25.200;2023-11-19T04:04:35;99796.28;;;6.04;70.36
71149;BME280;59072;42.144;25.200;2023-11-19T04:07:01;99798.41;;;5.87;71.15
71149;BME280;59072;42.144;25.200;2023-11-19T04:09:28;99801.88;;;5.94;70.57
71149;BME280;59072;42.144;25.200;2023-11-19T04:11:54;99794.22;;;5.99;69.83
71149;BME280;59072;42.144;25.200;2023-11-19T04:14:19;99789.69;;;5.93;69.92
71149;BME280;59072;42.144;25.200;2023-11-19T04:16:45;99797.53;;;6.15;69.67
71149;BME280;59072;42.144;25.200;2023-11-19T04:19:11;99779.41;;;6.05;68.99
71149;BME280;59072;42.144;25.200;2023-11-19T04:21:37;99760.13;;;5.90;69.27
71149;BME280;59072;42.144;25.200;2023-11-19T04:24:05;99804.41;;;6.02;69.92
71149;BME280;59072;42.144;25.200;2023-11-19T04:26:30;99786.91;;;6.01;68.98
71149;BME280;59072;42.144;25.200;2023-11-19T04:28:56;99804.88;;;6.13;68.92
71149;BME280;59072;42.144;25.200;2023-11-19T04:31:21;99807.31;;;6.08;68.40
71149;BME280;59072;42.144;25.200;2023-11-19T04:33:47;99803.63;;;6.09;68.62
71149;BME280;59072;42.144;25.200;2023-11-19T04:36:12;99819.72;;;6.07;69.08
71149;BME280;59072;42.144;25.200;2023-11-19T04:38:39;99816.25;;;6.07;68.82
71149;BME280;59072;42.144;25.200;2023-11-19T04:41:05;99815.44;;;6.06;68.95
71149;BME280;59072;42.144;25.200;2023-11-19T04:43:31;99808.53;;;6.12;67.62
71149;BME280;59072;42.144;25.200;2023-11-19T04:45:57;99841.84;;;6.34;67.82
71149;BME280;59072;42.144;25.200;2023-11-19T04:48:23;99821.53;;;6.07;68.56
71149;BME280;59072;42.144;25.200;2023-11-19T04:50:49;99838.75;;;6.24;68.91
71149;BME280;59072;42.144;25.200;2023-11-19T04:53:16;99826.38;;;5.96;69.10
71149;BME280;59072;42.144;25.200;2023-11-19T04:55:42;99856.09;;;5.98;70.12
71149;BME280;59072;42.144;25.200;2023-11-19T04:58:08;99838.59;;;5.97;69.36
71149;BME280;59072;42.144;25.200;2023-11-19T05:00:33;99850.44;;;6.01;69.13
71149;BME280;59072;42.144;25.200;2023-11-19T05:02:59;99853.09;;;5.80;69.95
71149;BME280;59072;42.144;25.200;2023-11-19T05:05:24;99884.22;;;5.99;69.98
71149;BME280;59072;42.144;25.200;2023-11-19T05:07:49;99847.00;;;5.79;69.02
71149;BME280;59072;42.144;25.200;2023-11-19T05:10:15;99852.09;;;5.81;69.07
71149;BME280;59072;42.144;25.200;2023-11-19T05:12:40;99890.91;;;5.95;70.07
71149;BME280;59072;42.144;25.200;2023-11-19T05:15:06;99873.44;;;6.01;69.11
71149;BME280;59072;42.144;25.200;2023-11-19T05:17:32;99874.75;;;5.90;69.65
71149;BME280;59072;42.144;25.200;2023-11-19T05:19:58;99888.72;;;5.77;70.22
71149;BME280;59072;42.144;25.200;2023-11-19T05:22:23;99870.94;;;5.71;69.23
71149;BME280;59072;42.144;25.200;2023-11-19T05:24:49;99910.81;;;5.91;68.76
71149;BME280;59072;42.144;25.200;2023-11-19T05:27:14;99874.81;;;5.69;68.82
71149;BME280;59072;42.144;25.200;2023-11-19T05:29:40;99915.06;;;5.92;68.30
71149;BME280;59072;42.144;25.200;2023-11-19T05:32:07;99882.34;;;5.72;68.36
71149;BME280;59072;42.144;25.200;2023-11-19T05:34:32;99891.31;;;5.71;68.97
71149;BME280;59072;42.144;25.200;2023-11-19T05:36:57;99903.81;;;5.83;68.59
71149;BME280;59072;42.144;25.200;2023-11-19T05:39:23;99910.19;;;5.89;68.28
71149;BME280;59072;42.144;25.200;2023-11-19T05:41:49;99882.47;;;5.85;69.06
71149;BME280;59072;42.144;25.200;2023-11-19T05:44:15;99892.75;;;5.95;68.00
71149;BME280;59072;42.144;25.200;2023-11-19T05:46:40;99905.13;;;5.94;68.79
71149;BME280;59072;42.144;25.200;2023-11-19T05:49:08;99882.84;;;5.82;68.71
71149;BME280;59072;42.144;25.200;2023-11-19T05:51:37;99913.81;;;6.10;67.65
71149;BME280;59072;42.144;25.200;2023-11-19T05:54:07;99860.03;;;5.81;67.75
71149;BME280;59072;42.144;25.200;2023-11-19T05:56:33;99898.78;;;5.89;68.09
71149;BME280;59072;42.144;25.200;2023-11-19T05:58:59;99907.03;;;6.00;67.79
71149;BME280;59072;42.144;25.200;2023-11-19T06:01:40;99905.84;;;6.03;67.44
71149;BME280;59072;42.144;25.200;2023-11-19T06:04:07;99871.47;;;5.88;66.80
71149;BME280;59072;42.144;25.200;2023-11-19T06:06:32;99871.34;;;5.96;66.80
71149;BME280;59072;42.144;25.200;2023-11-19T06:08:58;99898.09;;;6.01;67.17
71149;BME280;59072;42.144;25.200;2023-11-19T06:11:24;99889.53;;;5.99;67.27
71149;BME280;59072;42.144;25.200;2023-11-19T06:13:52;99922.91;;;6.00;67.27
71149;BME280;59072;42.144;25.200;2023-11-19T06:16:18;99903.00;;;5.83;67.31
71149;BME280;59072;42.144;25.200;2023-11-19T06:18:43;99909.88;;;5.99;67.57
71149;BME280;59072;42.144;25.200;2023-11-19T06:21:09;99893.16;;;5.98;66.71
71149;BME280;59072;42.144;25.200;2023-11-19T06:23:35;99944.38;;;6.12;67.39
71149;BME280;59072;42.144;25.200;2023-11-19T06:26:00;99953.91;;;6.07;66.66
71149;BME280;59072;42.144;25.200;2023-11-19T06:28:26;99923.16;;;5.84;68.20
71149;BME280;59072;42.144;25.200;2023-11-19T06:30:51;99927.16;;;5.95;67.17
71149;BME280;59072;42.144;25.200;2023-11-19T06:33:17;99937.09;;;5.93;67.56
71149;BME280;59072;42.144;25.200;2023-11-19T06:35:42;99956.75;;;6.05;66.58
71149;BME280;59072;42.144;25.200;2023-11-19T06:38:08;99943.09;;;6.01;66.54
71149;BME280;59072;42.144;25.200;2023-11-19T06:40:34;99956.44;;;5.93;67.30
71149;BME280;59072;42.144;25.200;2023-11-19T06:43:03;99903.66;;;5.63;67.84
71149;BME280;59072;42.144;25.200;2023-11-19T06:45:33;99935.84;;;5.89;67.92
71149;BME280;59072;42.144;25.200;2023-11-19T06:48:01;99896.19;;;5.74;67.57
71149;BME280;59072;42.144;25.200;2023-11-19T06:50:28;99921.50;;;6.04;67.03
71149;BME280;59072;42.144;25.200;2023-11-19T06:52:53;99901.88;;;6.20;66.42
71149;BME280;59072;42.144;25.200;2023-11-19T06:55:19;99915.28;;;6.19;65.81
71149;BME280;59072;42.144;25.200;2023-11-19T06:57:44;99943.25;;;6.21;66.24
71149;BME280;59072;42.144;25.200;2023-11-19T07:00:10;99919.81;;;6.25;65.83
71149;BME280;59072;42.144;25.200;2023-11-19T07:02:36;99942.97;;;6.44;65.08
71149;BME280;59072;42.144;25.200;2023-11-19T07:05:02;99953.00;;;6.56;64.65
71149;BME280;59072;42.144;25.200;2023-11-19T07:07:30;99966.19;;;6.77;63.39
71149;BME280;59072;42.144;25.200;2023-11-19T07:09:56;99942.16;;;6.86;62.72
71149;BME280;59072;42.144;25.200;2023-11-19T07:12:21;99938.09;;;6.90;63.38
71149;BME280;59072;42.144;25.200;2023-11-19T07:14:47;99940.03;;;7.16;62.28
71149;BME280;59072;42.144;25.200;2023-11-19T07:17:12;99967.88;;;7.53;60.90
71149;BME280;59072;42.144;25.200;2023-11-19T07:19:37;99957.63;;;7.37;60.13
71149;BME280;59072;42.144;25.200;2023-11-19T07:22:04;99937.06;;;7.52;60.56
71149;BME280;59072;42.144;25.200;2023-11-19T07:24:29;99970.56;;;7.73;59.52
71149;BME280;59072;42.144;25.200;2023-11-19T07:26:55;99973.03;;;7.81;59.65
71149;BME280;59072;42.144;25.200;2023-11-19T07:29:20;99968.13;;;7.85;58.73
71149;BME280;59072;42.144;25.200;2023-11-19T07:31:48;100000.59;;;8.00;58.22
71149;BME280;59072;42.144;25.200;2023-11-19T07:34:14;99977.09;;;8.11;57.83
71149;BME280;59072;42.144;25.200;2023-11-19T07:36:39;100014.50;;;8.36;57.90
71149;BME280;59072;42.144;25.200;2023-11-19T07:39:05;100005.72;;;8.55;56.20
71149;BME280;59072;42.144;25.200;2023-11-19T07:41:31;100005.69;;;8.62;55.64
71149;BME280;59072;42.144;25.200;2023-11-19T07:43:56;100008.56;;;8.67;55.37
71149;BME280;59072;42.144;25.200;2023-11-19T07:46:22;100019.38;;;8.72;54.06
71149;BME280;59072;42.144;25.200;2023-11-19T07:48:47;100025.50;;;8.79;54.29
71149;BME280;59072;42.144;25.200;2023-11-19T07:51:13;100047.81;;;8.72;54.74
71149;BME280;59072;42.144;25.200;2023-11-19T07:53:40;100058.69;;;8.57;54.17
71149;BME280;59072;42.144;25.200;2023-11-19T07:56:06;100054.97;;;8.58;53.88
71149;BME280;59072;42.144;25.200;2023-11-19T07:58:32;100050.06;;;8.28;54.68
71149;BME280;59072;42.144;25.200;2023-11-19T08:00:57;100051.09;;;8.40;53.99
71149;BME280;59072;42.144;25.200;2023-11-19T08:03:23;100056.00;;;8.43;53.52
71149;BME280;59072;42.144;25.200;2023-11-19T08:05:48;100051.94;;;8.41;53.02
71149;BME280;59072;42.144;25.200;2023-11-19T08:08:14;100042.50;;;8.52;53.91
71149;BME280;59072;42.144;25.200;2023-11-19T08:10:40;100073.38;;;8.79;53.26
71149;BME280;59072;42.144;25.200;2023-11-19T08:13:06;100020.63;;;8.63;53.11
71149;BME280;59072;42.144;25.200;2023-11-19T08:15:32;100046.56;;;8.74;52.99
71149;BME280;59072;42.144;25.200;2023-11-19T08:17:58;100037.16;;;8.85;53.50
71149;BME280;59072;42.144;25.200;2023-11-19T08:20:23;100020.81;;;8.81;52.41
71149;BME280;59072;42.144;25.200;2023-11-19T08:22:49;100006.53;;;8.69;52.87
71149;BME280;59072;42.144;25.200;2023-11-19T08:25:14;100049.63;;;8.98;52.48
71149;BME280;59072;42.144;25.200;2023-11-19T08:27:40;100049.84;;;8.90;52.62
71149;BME280;59072;42.144;25.200;2023-11-19T08:30:05;100035.41;;;9.17;52.60
71149;BME280;59072;42.144;25.200;2023-11-19T08:32:32;100035.75;;;9.41;51.16
71149;BME280;59072;42.144;25.200;2023-11-19T08:34:57;100028.72;;;9.53;51.16
71149;BME280;59072;42.144;25.200;2023-11-19T08:37:23;100005.44;;;9.42;51.00
71149;BME280;59072;42.144;25.200;2023-11-19T08:39:49;100033.16;;;9.98;50.30
71149;BME280;59072;42.144;25.200;2023-11-19T08:42:15;100053.03;;;10.02;49.70
71149;BME280;59072;42.144;25.200;2023-11-19T08:44:41;100035.88;;;9.91;49.10
71149;BME280;59072;42.144;25.200;2023-11-19T08:47:09;100032.34;;;9.65;48.59
71149;BME280;59072;42.144;25.200;2023-11-19T08:49:36;100042.53;;;9.75;49.50
71149;BME280;59072;42.144;25.200;2023-11-19T08:52:01;100051.13;;;9.77;49.51
71149;BME280;59072;42.144;25.200;2023-11-19T08:54:27;100039.03;;;10.06;48.79
71149;BME280;59072;42.144;25.200;2023-11-19T08:56:52;100062.59;;;10.41;48.11
71149;BME280;59072;42.144;25.200;2023-11-19T08:59:18;100073.53;;;10.58;47.27
71149;BME280;59072;42.144;25.200;2023-11-19T09:01:44;100037.59;;;9.79;48.11
71149;BME280;59072;42.144;25.200;2023-11-19T09:04:09;100059.16;;;10.02;47.92
71149;BME280;59072;42.144;25.200;2023-11-19T09:06:36;100071.38;;;10.49;47.35
71149;BME280;59072;42.144;25.200;2023-11-19T09:09:01;100054.00;;;10.39;47.00
71149;BME280;59072;42.144;25.200;2023-11-19T09:11:28;100067.66;;;10.50;46.66
71149;BME280;59072;42.144;25.200;2023-11-19T09:13:54;100054.47;;;10.30;46.70
71149;BME280;59072;42.144;25.200;2023-11-19T09:16:19;100059.31;;;10.39;47.44
71149;BME280;59072;42.144;25.200;2023-11-19T09:18:45;100059.38;;;10.58;46.10
71149;BME280;59072;42.144;25.200;2023-11-19T09:21:11;100057.59;;;10.52;46.50
71149;BME280;59072;42.144;25.200;2023-11-19T09:23:36;100052.16;;;10.65;46.82
71149;BME280;59072;42.144;25.200;2023-11-19T09:26:08;100050.13;;;10.35;45.56
71149;BME280;59072;42.144;25.200;2023-11-19T09:28:35;100043.19;;;10.34;45.99
71149;BME280;59072;42.144;25.200;2023-11-19T09:31:01;100036.28;;;10.20;45.54
71149;BME280;59072;42.144;25.200;2023-11-19T09:33:29;100039.31;;;10.23;46.45
71149;BME280;59072;42.144;25.200;2023-11-19T09:35:55;100037.22;;;10.57;45.94
71149;BME280;59072;42.144;25.200;2023-11-19T09:38:20;100037.19;;;11.01;44.83
71149;BME280;59072;42.144;25.200;2023-11-19T09:40:46;100039.72;;;11.14;45.42
71149;BME280;59072;42.144;25.200;2023-11-19T09:43:13;100034.56;;;10.57;46.20
71149;BME280;59072;42.144;25.200;2023-11-19T09:45:50;100050.31;;;10.84;46.78
71149;BME280;59072;42.144;25.200;2023-11-19T09:48:19;100013.63;;;10.36;46.70
71149;BME280;59072;42.144;25.200;2023-11-19T09:50:48;100054.53;;;10.92;46.25
71149;BME280;59072;42.144;25.200;2023-11-19T09:53:14;100047.69;;;10.59;45.35
71149;BME280;59072;42.144;25.200;2023-11-19T09:55:40;100077.69;;;10.98;44.84
71149;BME280;59072;42.144;25.200;2023-11-19T09:58:07;100060.78;;;11.04;44.52
71149;BME280;59072;42.144;25.200;2023-11-19T10:00:33;100046.97;;;10.89;44.62
71149;BME280;59072;42.144;25.200;2023-11-19T10:03:00;100047.19;;;10.69;44.64
71149;BME280;59072;42.144;25.200;2023-11-19T10:05:27;100076.78;;;11.04;45.08
71149;BME280;59072;42.144;25.200;2023-11-19T10:07:53;100071.16;;;10.94;44.71
71149;BME280;59072;42.144;25.200;2023-11-19T10:10:20;100071.03;;;11.56;44.55
71149;BME280;59072;42.144;25.200;2023-11-19T10:12:46;100055.75;;;11.14;44.44
71149;BME280;59072;42.144;25.200;2023-11-19T10:15:20;100056.03;;;11.06;44.29
71149;BME280;59072;42.144;25.200;2023-11-19T10:17:46;100072.91;;;11.55;44.44
71149;BME280;59072;42.144;25.200;2023-11-19T10:20:11;100072.06;;;11.24;43.32
71149;BME280;59072;42.144;25.200;2023-11-19T10:22:37;100066.91;;;11.41;42.73
71149;BME280;59072;42.144;25.200;2023-11-19T10:25:03;100058.44;;;11.63;44.73
71149;BME280;59072;42.144;25.200;2023-11-19T10:27:31;100040.59;;;11.75;41.46
71149;BME280;59072;42.144;25.200;2023-11-19T10:29:59;100059.25;;;11.63;41.77
71149;BME280;59072;42.144;25.200;2023-11-19T10:32:25;100067.56;;;11.55;42.18
71149;BME280;59072;42.144;25.200;2023-11-19T10:34:51;100059.25;;;11.63;41.21
71149;BME280;59072;42.144;25.200;2023-11-19T10:37:29;100036.50;;;11.73;41.84
71149;BME280;59072;42.144;25.200;2023-11-19T10:39:57;100072.13;;;11.85;41.96
71149;BME280;59072;42.144;25.200;2023-11-19T10:42:23;100051.47;;;11.92;41.50
71149;BME280;59072;42.144;25.200;2023-11-19T10:44:48;100044.28;;;11.93;41.00
71149;BME280;59072;42.144;25.200;2023-11-19T10:47:15;100049.22;;;12.08;41.33
71149;BME280;59072;42.144;25.200;2023-11-19T10:49:43;100049.41;;;11.76;41.28
71149;BME280;59072;42.144;25.200;2023-11-19T10:52:11;100038.72;;;11.76;41.00
71149;BME280;59072;42.144;25.200;2023-11-19T10:54:42;100061.44;;;11.66;41.29
71149;BME280;59072;42.144;25.200;2023-11-19T10:57:09;100020.56;;;11.36;41.73
71149;BME280;59072;42.144;25.200;2023-11-19T10:59:38;100039.50;;;11.64;41.22
71149;BME280;59072;42.144;25.200;2023-11-19T11:02:09;100029.97;;;11.69;41.39
71149;BME280;59072;42.144;25.200;2023-11-19T11:04:39;100024.16;;;11.60;41.74
71149;BME280;59072;42.144;25.200;2023-11-19T11:07:05;100020.75;;;11.83;41.03
71149;BME280;59072;42.144;25.200;2023-11-19T11:09:32;100012.47;;;11.73;40.22
71149;BME280;59072;42.144;25.200;2023-11-19T11:11:58;100030.91;;;11.93;40.05
71149;BME280;59072;42.144;25.200;2023-11-19T11:14:25;100036.66;;;12.08;40.06
71149;BME280;59072;42.144;25.200;2023-11-19T11:16:53;100026.69;;;11.85;40.06
71149;BME280;59072;42.144;25.200;2023-11-19T11:19:19;100032.13;;;11.78;40.85
71149;BME280;59072;42.144;25.200;2023-11-19T11:21:50;100030.81;;;11.69;40.61
71149;BME280;59072;42.144;25.200;2023-11-19T11:30:05;100042.47;;;12.17;39.93
71149;BME280;59072;42.144;25.200;2023-11-19T11:32:54;100027.94;;;12.13;40.15
71149;BME280;59072;42.144;25.200;2023-11-19T11:35:41;100017.63;;;12.40;39.59
71149;BME280;59072;42.144;25.200;2023-11-19T11:38:14;100033.69;;;12.63;39.63
71149;BME280;59072;42.144;25.200;2023-11-19T11:40:40;100000.63;;;12.81;39.17
71149;BME280;59072;42.144;25.200;2023-11-19T11:49:04;99996.91;;;12.35;40.12
71149;BME280;59072;42.144;25.200;2023-11-19T11:54:08;99958.41;;;11.89;39.41
71149;BME280;59072;42.144;25.200;2023-11-19T11:56:37;99965.28;;;12.09;39.74
71149;BME280;59072;42.144;25.200;2023-11-19T11:59:03;99966.25;;;12.26;39.19
71149;BME280;59072;42.144;25.200;2023-11-19T12:01:29;99980.03;;;12.82;38.88
71149;BME280;59072;42.144;25.200;2023-11-19T12:03:56;99983.78;;;12.45;39.12
71149;BME280;59072;42.144;25.200;2023-11-19T12:06:22;99985.50;;;12.75;38.74
71149;BME280;59072;42.144;25.200;2023-11-19T12:08:47;99972.84;;;12.59;38.80
71149;BME280;59072;42.144;25.200;2023-11-19T12:11:13;99943.06;;;12.67;38.54
71149;BME280;59072;42.144;25.200;2023-11-19T12:13:53;99979.31;;;12.86;38.36
71149;BME280;59072;42.144;25.200;2023-11-19T12:16:20;99985.91;;;13.48;37.56
71149;BME280;59072;42.144;25.200;2023-11-19T12:18:47;99970.41;;;13.50;37.97
71149;BME280;59072;42.144;25.200;2023-11-19T12:21:27;99996.13;;;13.80;37.13
71149;BME280;59072;42.144;25.200;2023-11-19T12:23:54;99981.00;;;13.74;36.52
71149;BME280;59072;42.144;25.200;2023-11-19T12:26:33;99985.41;;;14.14;36.17
71149;BME280;59072;42.144;25.200;2023-11-19T12:29:00;99975.69;;;15.30;34.66
71149;BME280;59072;42.144;25.200;2023-11-19T12:31:25;99962.88;;;14.49;34.45
71149;BME280;59072;42.144;25.200;2023-11-19T12:33:51;99982.88;;;14.58;34.71
71149;BME280;59072;42.144;25.200;2023-11-19T12:36:18;99987.00;;;14.65;34.64
71149;BME280;59072;42.144;25.200;2023-11-19T12:38:45;99968.13;;;14.77;34.11
71149;BME280;59072;42.144;25.200;2023-11-19T12:41:11;99992.16;;;15.11;33.84
71149;BME280;59072;42.144;25.200;2023-11-19T12:43:38;99965.66;;;15.20;32.94
71149;BME280;59072;42.144;25.200;2023-11-19T12:46:19;99967.28;;;14.99;33.44
71149;BME280;59072;42.144;25.200;2023-11-19T12:48:47;99977.28;;;15.53;32.74
71149;BME280;59072;42.144;25.200;2023-11-19T12:51:13;99958.56;;;15.36;32.28
71149;BME280;59072;42.144;25.200;2023-11-19T12:53:52;99924.47;;;15.68;32.15
71149;BME280;59072;42.144;25.200;2023-11-19T12:56:23;99974.94;;;17.16;30.71
71149;BME280;59072;42.144;25.200;2023-11-19T12:58:48;99968.00;;;17.41;29.77
71149;BME280;59072;42.144;25.200;2023-11-19T13:01:18;99940.34;;;16.98;30.27
71149;BME280;59072;42.144;25.200;2023-11-19T13:03:54;99962.53;;;17.10;29.91
71149;BME280;59072;42.144;25.200;2023-11-19T13:06:19;99983.63;;;17.54;29.28